createdAt,value
2019-04-23T00:01:46.338Z,44.83
2019-04-23T00:04:11.060Z,44.93
2019-04-23T00:06:47.594Z,45.15
2019-04-23T00:09:20.381Z,45.18
2019-04-23T00:11:54.267Z,45.25
2019-04-23T00:14:32.102Z,45.51
2019-04-23T00:16:59.215Z,45.64
2019-04-23T00:19:36.089Z,45.65
2019-04-23T00:22:39.833Z,45.71
2019-04-23T00:28:14.168Z,46.11
2019-04-23T00:33:18.870Z,46.30
2019-04-23T00:35:48.649Z,46.58
2019-04-23T00:40:51.427Z,46.64
2019-04-23T00:43:28.905Z,46.87
2019-04-23T00:45:59.717Z,46.75
2019-04-23T00:48:34.968Z,46.86
2019-04-23T00:51:01.983Z,46.94
2019-04-23T00:53:38.642Z,47.01
2019-04-23T00:56:32.096Z,47.12
2019-04-23T00:58:47.996Z,46.98
2019-04-23T01:01:31.862Z,47.18
2019-04-23T01:03:53.065Z,47.26
2019-04-23T01:06:24.190Z,47.29
2019-04-23T01:09:02.133Z,47.56
2019-04-23T01:11:34.230Z,47.57
2019-04-23T01:14:08.181Z,47.64
2019-04-23T01:16:39.323Z,47.51
2019-04-23T01:19:31.696Z,47.51
2019-04-23T01:21:41.153Z,47.89
2019-04-23T01:24:32.467Z,48.00
2019-04-23T01:27:39.763Z,48.06
2019-04-23T01:30:08.399Z,48.03
2019-04-23T01:32:39.232Z,48.18
2019-04-23T01:35:17.876Z,47.93
2019-04-23T01:37:45.129Z,48.16
2019-04-23T01:40:18.750Z,47.95
2019-04-23T01:42:44.225Z,47.94
2019-04-23T01:47:54.755Z,48.15
2019-04-23T01:50:27.977Z,48.46
2019-04-23T01:53:12.274Z,48.43
2019-04-23T01:58:30.193Z,48.80
2019-04-23T02:00:41.045Z,48.81
2019-04-23T02:03:15.137Z,49.20
2019-04-23T02:05:51.310Z,49.08
2019-04-23T02:08:19.320Z,49.10
2019-04-23T02:13:38.755Z,49.38
2019-04-23T02:15:57.133Z,49.28
2019-04-23T02:18:38.819Z,49.42
2019-04-23T02:21:10.233Z,49.28
2019-04-23T02:23:53.712Z,49.57
2019-04-23T02:26:46.472Z,49.57
2019-04-23T02:29:14.545Z,49.88
2019-04-23T02:31:50.100Z,49.72
2019-04-23T02:34:42.339Z,49.85
2019-04-23T02:44:24.131Z,50.14
2019-04-23T02:47:08.367Z,50.36
2019-04-23T02:49:44.288Z,50.47
2019-04-23T02:55:03.785Z,50.67
2019-04-23T02:57:24.758Z,50.67
2019-04-23T03:00:07.820Z,51.00
2019-04-23T03:02:35.105Z,51.07
2019-04-23T03:05:11.206Z,51.13
2019-04-23T03:15:29.818Z,51.04
2019-04-23T03:23:41.883Z,51.30
2019-04-23T03:28:56.865Z,51.59
2019-04-23T03:34:38.373Z,51.49
2019-04-23T03:36:38.597Z,51.71
2019-04-23T03:38:51.801Z,51.72
2019-04-23T03:41:50.236Z,52.01
2019-04-23T03:43:51.488Z,52.42
2019-04-23T03:49:05.582Z,52.84
2019-04-23T03:51:51.245Z,52.76
2019-04-23T04:02:10.601Z,53.09
2019-04-23T04:07:09.847Z,53.40
2019-04-23T04:12:21.412Z,53.31
2019-04-23T04:17:19.744Z,53.52
2019-04-23T04:20:02.370Z,53.70
2019-04-23T04:25:01.611Z,53.99
2019-04-23T04:32:54.469Z,54.62
2019-04-23T04:47:54.114Z,55.17
2019-04-23T04:50:32.822Z,55.06
2019-04-23T04:53:12.495Z,54.75
2019-04-23T04:58:32.441Z,54.94
2019-04-23T05:01:01.365Z,54.92
2019-04-23T05:08:38.327Z,55.29
2019-04-23T05:11:13.525Z,55.43
2019-04-23T05:18:49.548Z,55.49
2019-04-23T05:21:20.458Z,55.55
2019-04-23T05:26:25.055Z,55.51
2019-04-23T05:29:00.110Z,55.38
2019-04-23T05:31:27.887Z,55.24
2019-04-23T05:34:03.046Z,55.57
2019-04-23T05:36:44.142Z,55.63
2019-04-23T05:39:17.597Z,55.51
2019-04-23T05:41:41.247Z,55.16
2019-04-23T05:44:21.237Z,55.23
2019-04-23T05:46:52.190Z,55.41
2019-04-23T05:49:27.925Z,55.01
2019-04-23T05:52:00.335Z,55.04
2019-04-23T05:54:41.545Z,55.08
2019-04-23T05:57:09.895Z,54.95
2019-04-23T05:59:37.279Z,54.44
2019-04-23T06:02:26.193Z,54.90
2019-04-23T06:04:42.678Z,54.75
2019-04-23T06:09:53.167Z,54.26
2019-04-23T06:12:21.469Z,53.47
2019-04-23T06:14:57.490Z,53.37
2019-04-23T06:17:30.921Z,53.53
2019-04-23T06:25:27.477Z,53.41
2019-04-23T06:27:52.758Z,53.53
2019-04-23T06:30:42.209Z,53.44
2019-04-23T06:32:51.327Z,54.12
2019-04-23T06:35:47.002Z,54.18
2019-04-23T06:38:35.717Z,54.17
2019-04-23T06:40:38.890Z,53.11
2019-04-23T06:43:25.670Z,53.87
2019-04-23T06:45:49.491Z,52.98
2019-04-23T06:48:28.732Z,53.39
2019-04-23T06:51:07.846Z,52.96
2019-04-23T06:53:29.117Z,53.19
2019-04-23T06:56:14.308Z,52.84
2019-04-23T07:01:09.686Z,52.72
2019-04-23T07:03:50.647Z,52.84
2019-04-23T07:09:10.546Z,52.44
2019-04-23T07:11:40.258Z,53.06
2019-04-23T07:16:35.776Z,52.41
2019-04-23T07:19:14.949Z,52.24
2019-04-23T07:21:33.592Z,52.26
2019-04-23T07:31:59.307Z,52.01
2019-04-23T07:34:23.193Z,52.42
2019-04-23T07:36:58.825Z,53.30
2019-04-23T07:40:21.468Z,52.16
2019-04-23T07:43:00.223Z,52.13
2019-04-23T07:45:45.419Z,52.74
2019-04-23T07:48:31.488Z,52.23
2019-04-23T07:50:53.530Z,51.71
2019-04-23T07:53:46.688Z,51.98
2019-04-23T07:56:02.516Z,51.17
2019-04-23T07:58:44.666Z,50.78
2019-04-23T08:01:08.312Z,51.54
2019-04-23T08:03:43.655Z,50.49
2019-04-23T08:06:15.366Z,50.53
2019-04-23T08:08:52.672Z,50.25
2019-04-23T08:13:59.082Z,50.17
2019-04-23T08:18:57.760Z,49.30
2019-04-23T08:21:37.548Z,48.94
2019-04-23T08:24:33.647Z,48.37
2019-04-23T08:27:07.540Z,48.04
2019-04-23T08:29:36.376Z,48.77
2019-04-23T08:32:15.010Z,48.15
2019-04-23T08:34:58.774Z,46.01
2019-04-23T08:37:26.576Z,46.27
2019-04-23T08:39:57.112Z,45.85
2019-04-23T08:42:36.378Z,45.60
2019-04-23T08:45:32.912Z,45.43
2019-04-23T08:48:41.678Z,45.53
2019-04-23T08:51:05.551Z,45.78
2019-04-23T08:56:02.019Z,44.54
2019-04-23T08:58:34.028Z,44.29
2019-04-23T09:01:13.696Z,43.74
2019-04-23T09:03:42.782Z,42.40
2019-04-23T09:06:20.239Z,41.88
2019-04-23T09:08:49.993Z,42.38
2019-04-23T09:14:07.141Z,41.76
2019-04-23T09:16:36.205Z,40.49
2019-04-23T09:21:40.179Z,40.68
2019-04-23T09:24:11.782Z,41.20
2019-04-23T09:26:51.666Z,41.40
2019-04-23T09:29:30.305Z,41.63
2019-04-23T09:32:21.815Z,41.19
2019-04-23T09:35:12.940Z,40.81
2019-04-23T09:37:59.621Z,40.44
2019-04-23T09:41:05.913Z,40.09
2019-04-23T09:43:31.248Z,41.59
2019-04-23T09:49:09.320Z,39.79
2019-04-23T09:51:39.653Z,39.52
2019-04-23T09:54:12.144Z,38.75
2019-04-23T09:56:41.003Z,39.83
2019-04-23T09:59:26.441Z,38.70
2019-04-23T10:01:40.943Z,39.90
2019-04-23T10:04:08.684Z,38.95
2019-04-23T10:06:32.530Z,39.62
2019-04-23T10:09:06.105Z,39.11
2019-04-23T10:11:37.450Z,40.14
2019-04-23T10:14:10.609Z,39.75
2019-04-23T10:16:43.382Z,41.39
2019-04-23T10:19:15.640Z,40.71
2019-04-23T10:21:49.206Z,39.80
2019-04-23T10:24:21.084Z,39.34
2019-04-23T10:26:52.676Z,39.42
2019-04-23T10:29:28.071Z,38.46
2019-04-23T10:31:59.834Z,38.10
2019-04-23T10:34:44.103Z,37.81
2019-04-23T10:37:05.308Z,38.15
2019-04-23T10:39:42.734Z,37.96
2019-04-23T10:42:12.190Z,39.54
2019-04-23T10:44:54.406Z,38.72
2019-04-23T10:51:04.358Z,38.19
2019-04-23T10:53:37.846Z,39.53
2019-04-23T10:56:22.641Z,38.99
2019-04-23T10:58:38.342Z,38.42
2019-04-23T11:01:22.714Z,38.32
2019-04-23T11:04:13.722Z,38.27
2019-04-23T11:06:30.818Z,38.64
2019-04-23T11:09:24.729Z,38.78
2019-04-23T11:11:46.939Z,38.97
2019-04-23T11:14:23.126Z,39.21
2019-04-23T11:16:57.217Z,39.69
2019-04-23T11:19:33.964Z,38.67
2019-04-23T11:22:06.282Z,39.20
2019-04-23T11:27:07.868Z,39.94
2019-04-23T11:32:31.738Z,40.13
2019-04-23T11:35:06.739Z,39.98
2019-04-23T11:37:29.965Z,39.18
2019-04-23T11:39:50.285Z,39.52
2019-04-23T11:42:29.703Z,39.31
2019-04-23T11:48:07.416Z,38.60
2019-04-23T11:55:30.995Z,38.91
2019-04-23T12:00:31.496Z,38.45
2019-04-23T12:03:19.370Z,39.63
2019-04-23T12:06:21.937Z,39.43
2019-04-23T12:08:56.661Z,39.81
2019-04-23T12:14:42.059Z,38.57
2019-04-23T12:17:18.570Z,38.99
2019-04-23T12:22:26.986Z,38.19
2019-04-23T12:25:07.658Z,37.70
2019-04-23T12:27:30.675Z,39.27
2019-04-23T12:30:03.564Z,41.01
2019-04-23T12:38:03.274Z,37.90
2019-04-23T12:40:27.523Z,37.12
2019-04-23T12:43:02.530Z,37.28
2019-04-23T12:45:31.702Z,37.11
2019-04-23T12:48:26.296Z,36.23
2019-04-23T12:53:10.542Z,36.34
2019-04-23T12:58:20.396Z,34.75
2019-04-23T13:00:48.084Z,34.72
2019-04-23T13:03:26.110Z,35.03
2019-04-23T13:05:51.328Z,36.28
2019-04-23T13:11:21.559Z,36.40
2019-04-23T13:13:48.754Z,36.31
2019-04-23T13:18:46.581Z,36.22
2019-04-23T13:21:39.946Z,36.21
2019-04-23T13:24:11.388Z,36.65
2019-04-23T13:26:46.551Z,35.92
2019-04-23T13:29:32.425Z,35.89
2019-04-23T13:31:50.182Z,36.49
2019-04-23T13:34:31.621Z,37.95
2019-04-23T13:36:59.737Z,36.91
2019-04-23T13:39:42.243Z,37.03
2019-04-23T13:42:15.985Z,37.97
2019-04-23T13:44:47.001Z,37.71
2019-04-23T13:47:29.866Z,38.11
2019-04-23T13:52:48.771Z,36.90
2019-04-23T13:55:04.571Z,37.55
2019-04-23T14:00:06.730Z,38.73
2019-04-23T14:02:52.512Z,37.84
2019-04-23T14:05:41.299Z,35.76
2019-04-23T14:10:40.041Z,34.07
2019-04-23T14:13:33.303Z,33.07
2019-04-23T14:15:59.012Z,33.02
2019-04-23T14:20:59.007Z,34.09
2019-04-23T14:23:39.570Z,34.11
2019-04-23T14:26:15.844Z,33.79
2019-04-23T14:28:41.863Z,33.88
2019-04-23T14:36:19.476Z,34.79
2019-04-23T14:38:52.738Z,34.02
2019-04-23T14:41:23.408Z,35.02
2019-04-23T14:49:06.530Z,34.38
2019-04-23T14:54:15.700Z,35.45
2019-04-23T14:56:44.964Z,35.11
2019-04-23T14:59:19.460Z,35.40
2019-04-23T15:01:54.885Z,33.79
2019-04-23T15:04:28.738Z,34.44
2019-04-23T15:12:16.011Z,35.77
2019-04-23T15:14:52.454Z,36.03
2019-04-23T15:17:20.280Z,35.44
2019-04-23T15:20:20.269Z,36.01
2019-04-23T15:23:09.240Z,36.82
2019-04-23T15:30:21.737Z,36.34
2019-04-23T15:35:55.746Z,36.06
2019-04-23T15:40:43.778Z,37.47
2019-04-23T15:43:16.661Z,36.74
2019-04-23T15:45:52.100Z,36.97
2019-04-23T15:48:26.040Z,37.90
2019-04-23T15:51:10.077Z,36.80
2019-04-23T15:53:26.643Z,37.18
2019-04-23T15:56:11.735Z,37.89
2019-04-23T15:58:46.524Z,37.98
2019-04-23T16:03:27.508Z,37.52
2019-04-23T16:05:59.259Z,38.17
2019-04-23T16:09:05.490Z,37.87
2019-04-23T16:11:39.495Z,38.16
2019-04-23T16:16:45.323Z,38.46
2019-04-23T16:19:24.434Z,38.06
2019-04-23T16:22:07.276Z,38.73
2019-04-23T16:24:26.697Z,38.56
2019-04-23T16:27:07.978Z,38.75
2019-04-23T16:32:20.500Z,39.17
2019-04-23T16:34:51.894Z,39.38
2019-04-23T16:37:22.796Z,39.85
2019-04-23T16:40:03.936Z,40.03
2019-04-23T16:42:29.323Z,39.50
2019-04-23T16:47:38.657Z,40.25
2019-04-23T16:50:13.026Z,40.08
2019-04-23T16:52:42.521Z,40.47
2019-04-23T16:55:16.661Z,40.74
2019-04-23T16:58:08.433Z,41.16
2019-04-23T17:00:33.590Z,41.49
2019-04-23T17:03:06.806Z,41.44
2019-04-23T17:08:33.778Z,41.91
2019-04-23T17:10:48.735Z,42.27
2019-04-23T17:13:17.534Z,41.98
2019-04-23T17:18:24.494Z,42.61
2019-04-23T17:20:56.021Z,42.84
2019-04-23T17:23:39.250Z,42.88
2019-04-23T17:26:02.718Z,42.90
2019-04-23T17:28:58.275Z,42.83
2019-04-23T17:31:26.242Z,43.27
2019-04-23T17:36:24.013Z,43.02
2019-04-23T17:39:05.387Z,43.43
2019-04-23T17:41:50.058Z,43.36
2019-04-23T17:46:54.280Z,44.20
2019-04-23T17:49:23.357Z,44.15
2019-04-23T17:51:56.052Z,44.45
2019-04-23T17:54:48.086Z,44.65
2019-04-23T18:00:08.310Z,44.85
2019-04-23T18:05:02.366Z,44.80
2019-04-23T18:10:17.970Z,45.48
2019-04-23T18:15:10.627Z,45.68
2019-04-23T18:17:52.805Z,45.79
2019-04-23T18:20:50.466Z,45.95
2019-04-23T18:23:19.661Z,45.99
2019-04-23T18:25:58.055Z,46.66
2019-04-23T18:28:29.587Z,46.69
2019-04-23T18:34:15.884Z,47.16
2019-04-23T18:36:46.610Z,47.15
2019-04-23T18:39:26.294Z,47.56
2019-04-23T18:41:59.982Z,47.73
2019-04-23T18:44:34.279Z,48.01
2019-04-23T18:47:00.420Z,47.84
2019-04-23T18:52:20.867Z,47.93
2019-04-23T18:54:41.875Z,48.03
2019-04-23T18:59:50.965Z,48.03
2019-04-23T19:10:57.780Z,48.65
2019-04-23T19:13:32.845Z,48.90
2019-04-23T19:16:13.129Z,48.73
2019-04-23T19:18:40.357Z,49.08
2019-04-23T19:26:45.845Z,49.54
2019-04-23T19:28:56.052Z,49.67
2019-04-23T19:34:42.302Z,49.92
2019-04-23T19:37:02.567Z,49.96
2019-04-23T19:44:49.405Z,49.98
2019-04-23T19:47:29.326Z,50.16
2019-04-23T19:49:53.322Z,50.27
2019-04-23T19:52:52.200Z,50.41
2019-04-23T19:55:00.019Z,50.51
2019-04-23T19:57:42.499Z,50.62
2019-04-23T20:00:13.835Z,50.67
2019-04-23T20:03:05.999Z,50.80
2019-04-23T20:05:21.675Z,50.93
2019-04-23T20:08:02.608Z,51.04
2019-04-23T20:10:30.436Z,50.90
2019-04-23T20:12:51.797Z,51.16
2019-04-23T20:15:41.120Z,51.27
2019-04-23T20:17:59.535Z,51.16
2019-04-23T20:20:49.796Z,51.47
2019-04-23T20:23:30.698Z,51.55
2019-04-23T20:26:12.109Z,51.63
2019-04-23T20:32:48.883Z,51.72
2019-04-23T20:34:11.479Z,51.78
2019-04-23T20:36:48.203Z,51.88
2019-04-23T20:39:16.361Z,52.02
2019-04-23T20:42:10.722Z,52.25
2019-04-23T20:44:39.461Z,52.33
2019-04-23T20:49:42.849Z,52.37
2019-04-23T20:52:07.025Z,52.57
2019-04-23T20:57:45.622Z,52.84
2019-04-23T21:00:36.835Z,52.98
2019-04-23T21:03:18.141Z,52.95
2019-04-23T21:05:22.880Z,52.96
2019-04-23T21:10:38.583Z,53.26
2019-04-23T21:13:15.697Z,53.49
2019-04-23T21:18:22.422Z,53.59
2019-04-23T21:21:13.292Z,53.37
2019-04-23T21:23:25.046Z,53.40
2019-04-23T21:25:52.578Z,53.60
2019-04-23T21:28:40.153Z,53.28
2019-04-23T21:33:59.377Z,53.32
2019-04-23T21:36:46.408Z,53.30
2019-04-23T21:42:40.794Z,53.35
2019-04-23T21:45:04.826Z,53.24
2019-04-23T21:47:54.910Z,53.27
2019-04-23T21:50:25.269Z,54.00
2019-04-23T21:52:54.123Z,53.61
2019-04-23T21:58:07.305Z,53.76
2019-04-23T22:00:39.275Z,53.69
2019-04-23T22:03:11.740Z,53.76
2019-04-23T22:05:44.477Z,53.79
2019-04-23T22:08:05.803Z,53.82
2019-04-23T22:10:58.738Z,53.89
2019-04-23T22:18:23.957Z,54.42
2019-04-23T22:21:05.114Z,54.66
2019-04-23T22:23:44.444Z,54.66
2019-04-23T22:26:13.260Z,54.84
2019-04-23T22:28:54.373Z,54.72
2019-04-23T22:33:56.777Z,55.06
2019-04-23T22:38:59.540Z,55.21
2019-04-23T22:41:30.183Z,55.46
2019-04-23T22:44:05.393Z,55.56
2019-04-23T22:46:50.199Z,55.98
2019-04-23T22:49:36.405Z,55.88
2019-04-23T22:54:18.808Z,56.21
2019-04-23T22:56:54.222Z,56.79
2019-04-23T22:59:58.651Z,57.19
2019-04-23T23:02:25.418Z,57.12
2019-04-23T23:05:14.297Z,56.66
2019-04-23T23:07:29.041Z,57.32
2019-04-23T23:10:06.885Z,56.59
2019-04-23T23:12:44.966Z,56.85
2019-04-23T23:17:50.709Z,57.27
2019-04-23T23:22:58.875Z,57.36
2019-04-23T23:27:57.755Z,57.14
2019-04-23T23:30:26.293Z,57.26
2019-04-23T23:33:03.825Z,57.25
2019-04-23T23:35:40.570Z,57.45
2019-04-23T23:38:16.413Z,57.58
2019-04-23T23:40:47.263Z,57.67
2019-04-23T23:45:57.499Z,57.72
2019-04-23T23:48:18.714Z,58.06
2019-04-23T23:51:00.430Z,58.32
2019-04-23T23:53:40.043Z,58.31
